Time;durP1;ratioP1;P1;durP2;ratioP2;P2;SDS_P1;SDS_P2;PMS_P1;PMS_P2;Temp;Humidity;BMP_temperature;BMP_pressure;BME280_temperature;BME280_humidity;BME280_pressure;Samples;Min_cycle;Max_cycle;Signal;HPM_P1;HPM_P2
2022/09/19 07:02:20;;;;;;;8.75;0.80;;;11.70;99.90;;;;;;6206329;22;20016;-83
2022/09/19 07:04:53;;;;;;;7.90;0.82;;;11.80;99.90;;;;;;6122631;23;20000;-83
2022/09/19 07:07:35;;;;;;;4.97;0.70;;;12.00;99.90;;;;;;6175979;23;20468;-82
2022/09/19 07:10:10;;;;;;;11.23;0.98;;;12.40;99.90;;;;;;6171230;23;20001;-82
2022/09/19 07:13:09;;;;;;;13.18;0.90;;;12.60;99.90;;;;;;6170811;23;20009;-84
2022/09/19 07:15:47;;;;;;;8.52;0.60;;;12.70;99.90;;;;;;6122247;23;20016;-83
2022/09/19 07:18:33;;;;;;;3.10;0.52;;;12.70;99.90;;;;;;6144805;23;20013;-83
2022/09/19 07:21:32;;;;;;;5.30;0.60;;;12.60;99.90;;;;;;6124218;23;20004;-83
2022/09/19 07:24:15;;;;;;;6.70;0.65;;;12.50;99.90;;;;;;6165333;23;20031;-82
2022/09/19 07:27:03;;;;;;;9.25;0.68;;;12.40;99.90;;;;;;6120009;23;20009;-83
2022/09/19 07:29:42;;;;;;;4.70;0.60;;;12.30;99.90;;;;;;6188932;23;20005;-83
2022/09/19 07:32:26;;;;;;;7.28;0.68;;;12.30;99.90;;;;;;6117910;23;20459;-84
2022/09/19 07:47:37;;;;;;;7.72;0.80;;;13.10;99.90;;;;;;6023782;23;20015;-82
2022/09/19 07:54:53;;;;;;;8.35;0.90;;;13.50;99.90;;;;;;6137838;23;19914;-82
2022/09/19 07:58:23;;;;;;;6.57;0.90;;;13.60;99.90;;;;;;6170700;23;20019;-84
2022/09/19 08:01:27;;;;;;;5.55;1.00;;;13.60;99.90;;;;;;6127234;23;20445;-83
2022/09/19 08:05:00;;;;;;;12.57;1.00;;;13.60;99.90;;;;;;6200394;23;20019;-83
2022/09/19 08:07:53;;;;;;;9.02;0.70;;;13.50;99.90;;;;;;6141529;23;20451;-83
2022/09/19 08:10:32;;;;;;;9.95;0.95;;;13.70;99.90;;;;;;6140532;23;20062;-82
2022/09/19 08:13:37;;;;;;;10.70;1.20;;;13.80;99.90;;;;;;6193006;23;20016;-83
2022/09/19 08:16:52;;;;;;;7.03;0.50;;;13.90;99.90;;;;;;6150167;23;20013;-83
2022/09/19 08:19:42;;;;;;;10.77;1.10;;;14.10;99.90;;;;;;6163405;23;20006;-83
2022/09/19 08:22:24;;;;;;;5.78;0.40;;;14.20;99.90;;;;;;6137476;23;20015;-83
2022/09/19 08:28:31;;;;;;;6.03;0.75;;;14.40;99.90;;;;;;6139615;23;20464;-82
2022/09/19 08:31:39;;;;;;;7.18;0.65;;;14.60;99.90;;;;;;6187198;23;19997;-81
2022/09/19 08:34:59;;;;;;;6.72;1.05;;;14.70;99.90;;;;;;6144748;23;20009;-82
2022/09/19 08:38:03;;;;;;;10.18;1.30;;;14.90;99.90;;;;;;6177432;23;20013;-83
2022/09/19 08:40:35;;;;;;;6.32;0.60;;;15.00;99.90;;;;;;6138479;23;20020;-83
2022/09/19 08:43:21;;;;;;;11.88;0.70;;;15.10;99.90;;;;;;6164590;23;20005;-81
2022/09/19 08:45:53;;;;;;;6.68;0.70;;;15.30;99.90;;;;;;6157866;23;20009;-85
2022/09/19 08:48:51;;;;;;;7.90;0.60;;;15.40;99.90;;;;;;6112157;23;20005;-82
2022/09/19 08:51:38;;;;;;;9.35;1.10;;;15.40;99.90;;;;;;6157856;23;20008;-82
2022/09/19 08:54:18;;;;;;;7.57;1.08;;;15.50;99.90;;;;;;6116555;23;20013;-83
2022/09/19 08:56:57;;;;;;;10.20;1.00;;;15.60;99.90;;;;;;6177397;23;20456;-81
2022/09/19 08:59:36;;;;;;;12.30;0.98;;;15.60;99.90;;;;;;6117086;23;20005;-81
2022/09/19 09:02:36;;;;;;;8.07;0.90;;;15.70;99.90;;;;;;6119610;23;20015;-82
2022/09/19 09:05:07;;;;;;;6.47;0.77;;;15.70;99.90;;;;;;6139801;23;20452;-80
2022/09/19 09:08:00;;;;;;;8.13;0.60;;;15.90;99.90;;;;;;6196269;23;20012;-80
2022/09/19 09:10:51;;;;;;;6.53;0.70;;;16.20;99.90;;;;;;6138403;23;20031;-82
2022/09/19 09:13:57;;;;;;;7.35;0.80;;;16.40;99.90;;;;;;6163440;23;20452;-82
2022/09/19 09:16:36;;;;;;;5.88;0.50;;;16.70;99.90;;;;;;6172105;23;20001;-81
2022/09/19 09:19:37;;;;;;;5.32;0.98;;;17.00;99.90;;;;;;6114276;23;20357;-81
2022/09/19 09:25:52;;;;;;;8.05;0.63;;;16.90;99.90;;;;;;6158665;23;20578;-82
2022/09/19 09:29:11;;;;;;;5.93;0.60;;;15.80;99.90;;;;;;6115808;23;20013;-82
2022/09/19 09:36:06;;;;;;;4.78;0.60;;;14.10;99.90;;;;;;6180426;23;20001;-84
2022/09/19 09:39:57;;;;;;;2.47;0.30;;;13.80;99.90;;;;;;6160001;23;20031;-83
2022/09/19 09:43:20;;;;;;;3.10;0.30;;;13.70;99.90;;;;;;6163166;23;20449;-82
2022/09/19 09:46:58;;;;;;;1.83;0.40;;;13.60;99.90;;;;;;6161807;23;20001;-82
2022/09/19 09:49:35;;;;;;;1.33;0.40;;;14.00;99.90;;;;;;6076668;23;20014;-83
2022/09/19 09:52:30;;;;;;;1.83;0.20;;;14.50;99.90;;;;;;6102208;23;20002;-83
2022/09/19 09:57:51;;;;;;;3.95;0.30;;;14.60;99.90;;;;;;6138298;23;20016;-82
2022/09/19 10:05:16;;;;;;;4.53;0.40;;;14.70;99.90;;;;;;6187678;23;20027;-83
2022/09/19 10:08:41;;;;;;;2.25;0.30;;;15.00;99.90;;;;;;6163348;23;20021;-83
2022/09/19 10:11:54;;;;;;;2.38;0.20;;;15.30;99.90;;;;;;6163609;23;20005;-84
2022/09/19 10:15:11;;;;;;;1.50;0.28;;;15.30;99.90;;;;;;6163917;23;20005;-80
2022/09/19 10:18:34;;;;;;;1.20;0.20;;;15.20;99.90;;;;;;6144901;23;20015;-83
2022/09/19 10:21:33;;;;;;;4.85;0.40;;;15.10;99.90;;;;;;6187590;23;20013;-82
2022/09/19 10:24:59;;;;;;;1.23;0.20;;;15.00;99.90;;;;;;6099449;23;20010;-81
2022/09/19 10:28:40;;;;;;;1.80;0.35;;;15.40;99.90;;;;;;6093354;23;20017;-80
2022/09/19 10:31:57;;;;;;;6.20;0.87;;;16.00;99.90;;;;;;6146326;23;20013;-80
2022/09/19 10:34:50;;;;;;;3.95;0.40;;;16.80;99.90;;;;;;6118949;23;20475;-81
2022/09/19 10:37:28;;;;;;;3.28;0.63;;;17.10;99.90;;;;;;6115519;23;20009;-80
2022/09/19 10:40:25;;;;;;;2.70;0.30;;;16.90;99.90;;;;;;6140023;23;20019;-81
2022/09/19 10:43:51;;;;;;;1.23;0.20;;;16.30;99.90;;;;;;6166447;23;20012;-81
2022/09/19 10:51:12;;;;;;;;;;;;;;;;;;;;;
2022/09/19 10:53:59;;;;;;;2.53;0.32;;;15.00;99.90;;;;;;6139052;23;20013;-81
2022/09/19 10:57:04;;;;;;;1.60;0.20;;;14.90;99.90;;;;;;6116443;23;20015;-82
2022/09/19 11:00:04;;;;;;;;;;;;;;;;;;;;;
2022/09/19 11:03:39;;;;;;;2.65;0.30;;;15.00;99.90;;;;;;6142814;23;20318;-80
2022/09/19 11:07:30;;;;;;;;;;;;;;;;;;;;;
2022/09/19 11:10:37;;;;;;;3.67;0.30;;;15.40;99.90;;;;;;6139437;23;20352;-81
2022/09/19 11:13:34;;;;;;;;;;;;;;;;;;;;;
2022/09/19 11:17:11;;;;;;;4.10;0.20;;;15.90;99.90;;;;;;6181205;23;20016;-80
2022/09/19 11:20:35;;;;;;;1.20;0.10;;;16.70;99.90;;;;;;6147920;23;20009;-79
2022/09/19 11:23:40;;;;;;;1.48;0.20;;;17.80;99.90;;;;;;6164855;23;20465;-82
2022/09/19 11:26:13;;;;;;;2.33;0.28;;;18.90;99.90;;;;;;6115696;23;20024;-82
2022/09/19 11:29:32;;;;;;;0.93;0.20;;;19.40;99.90;;;;;;6140080;23;20084;-83
2022/09/19 11:33:06;;;;;;;0.90;0.20;;;19.40;99.90;;;;;;6165049;23;20006;-81
2022/09/19 11:36:58;;;;;;;1.35;0.20;;;19.00;99.90;;;;;;6145183;23;20005;-82
2022/09/19 11:40:03;;;;;;;1.80;0.30;;;19.10;99.90;;;;;;6127808;23;20295;-80
2022/09/19 11:42:49;;;;;;;2.08;0.40;;;19.50;99.90;;;;;;6113022;23;20005;-81
2022/09/19 11:45:28;;;;;;;1.52;0.30;;;19.90;99.90;;;;;;6139061;23;20001;-82
2022/09/19 11:48:54;;;;;;;1.42;0.30;;;20.30;99.90;;;;;;6149346;23;20017;-81
2022/09/19 11:51:56;;;;;;;1.75;0.40;;;20.40;99.90;;;;;;6120119;23;20194;-80
2022/09/19 11:55:04;;;;;;;4.72;0.40;;;20.30;99.90;;;;;;6117493;23;20024;-82
2022/09/19 11:57:44;;;;;;;3.65;0.50;;;20.80;99.90;;;;;;6116247;23;20001;-82
2022/09/19 12:00:19;;;;;;;2.88;0.40;;;21.40;99.90;;;;;;6137952;23;20009;-81
2022/09/19 12:02:53;;;;;;;2.47;0.30;;;22.10;99.90;;;;;;6161999;23;20336;-81
2022/09/19 12:05:49;;;;;;;1.75;0.30;;;22.70;99.90;;;;;;6138022;23;20260;-82
2022/09/19 12:08:58;;;;;;;1.45;0.28;;;23.30;99.90;;;;;;6138786;23;20017;-82
2022/09/19 12:11:49;;;;;;;3.70;0.50;;;23.90;97.70;;;;;;6137532;23;20008;-80
2022/09/19 12:14:49;;;;;;;2.83;1.45;;;24.30;96.20;;;;;;6159403;23;20016;-81
2022/09/19 12:17:32;;;;;;;1.90;0.50;;;24.80;95.40;;;;;;6114047;23;20009;-79
2022/09/19 12:20:34;;;;;;;1.90;0.40;;;24.20;93.20;;;;;;6161505;23;20013;-83
2022/09/19 12:27:21;;;;;;;1.67;0.32;;;23.60;92.70;;;;;;6126967;23;20380;-80
2022/09/19 12:30:11;;;;;;;2.50;0.30;;;23.70;91.60;;;;;;6103491;23;20036;-79
2022/09/19 12:32:59;;;;;;;1.60;0.28;;;23.10;91.90;;;;;;6163622;23;20015;-81
2022/09/19 12:36:04;;;;;;;1.40;0.20;;;22.10;92.20;;;;;;6119091;23;20013;-80
2022/09/19 12:38:53;;;;;;;2.60;0.30;;;22.20;92.50;;;;;;6163727;23;20016;-80
2022/09/19 12:41:52;;;;;;;1.98;0.35;;;23.10;92.20;;;;;;6113478;23;20031;-80
2022/09/19 12:44:43;;;;;;;3.80;0.60;;;23.70;91.30;;;;;;6139885;23;20484;-81
2022/09/19 12:47:29;;;;;;;2.53;0.60;;;24.40;90.00;;;;;;6174551;23;20001;-81
2022/09/19 12:50:45;;;;;;;2.15;0.22;;;24.90;85.50;;;;;;6119577;23;20005;-80
2022/09/19 12:53:25;;;;;;;1.17;0.32;;;25.00;84.40;;;;;;6161139;23;20023;-80
2022/09/19 12:56:03;;;;;;;2.17;0.30;;;24.50;83.70;;;;;;6115563;23;20313;-83
2022/09/19 12:59:13;;;;;;;1.65;0.30;;;24.80;83.20;;;;;;6163707;23;20016;-80
2022/09/19 13:13:11;;;;;;;2.35;0.32;;;27.00;75.40;;;;;;6208141;22;20024;-82
2022/09/19 13:16:24;;;;;;;1.38;0.30;;;25.10;75.40;;;;;;6168577;23;20009;-82
2022/09/19 13:24:50;;;;;;;1.58;0.30;;;24.50;78.90;;;;;;6164449;23;20005;-83
2022/09/19 13:27:17;;;;;;;0.98;0.28;;;25.50;76.50;;;;;;6142838;23;20013;-80
2022/09/19 13:29:51;;;;;;;1.95;0.30;;;25.90;73.80;;;;;;6177106;23;20005;-81
2022/09/19 13:32:34;;;;;;;1.23;0.30;;;26.10;72.20;;;;;;6130169;23;20015;-80
2022/09/19 13:35:11;;;;;;;2.17;0.30;;;26.40;72.00;;;;;;6174760;23;20011;-79
2022/09/19 13:37:42;;;;;;;1.42;0.30;;;26.10;72.00;;;;;;6151482;23;20020;-83
2022/09/19 13:40:21;;;;;;;2.25;0.30;;;26.20;72.20;;;;;;6125136;23;20009;-82
2022/09/19 13:43:11;;;;;;;1.35;0.32;;;26.60;69.20;;;;;;6145789;23;20009;-83
2022/09/19 13:45:57;;;;;;;1.60;0.40;;;27.00;67.80;;;;;;6156803;23;20005;-83
2022/09/19 13:48:30;;;;;;;1.30;0.30;;;26.80;65.90;;;;;;6125248;23;20011;-82
2022/09/19 13:51:05;;;;;;;1.15;0.20;;;25.40;67.30;;;;;;6125739;23;20005;-81
2022/09/19 13:53:44;;;;;;;1.45;0.30;;;24.00;69.90;;;;;;6152282;23;20008;-83
2022/09/19 13:56:24;;;;;;;1.58;0.30;;;22.80;72.90;;;;;;6172908;23;20009;-82
2022/09/19 13:59:24;;;;;;;3.15;0.30;;;21.80;75.60;;;;;;6118180;23;20326;-81
2022/09/19 14:02:23;;;;;;;2.65;0.35;;;21.10;77.90;;;;;;6140686;23;20013;-82
2022/09/19 14:05:08;;;;;;;2.17;0.52;;;20.50;79.30;;;;;;6177300;23;20009;-83
2022/09/19 14:07:53;;;;;;;3.13;0.45;;;19.90;81.80;;;;;;6142091;23;20487;-80
2022/09/19 14:10:48;;;;;;;1.75;0.30;;;19.50;83.10;;;;;;6115861;23;20460;-82
2022/09/19 14:13:21;;;;;;;4.88;0.30;;;19.40;84.20;;;;;;6165144;23;20020;-82
2022/09/19 14:16:02;;;;;;;2.13;0.30;;;19.40;85.10;;;;;;6191375;23;19997;-82
2022/09/19 14:18:38;;;;;;;1.10;0.30;;;19.30;85.50;;;;;;6136684;23;20013;-83
2022/09/19 14:21:08;;;;;;;1.25;0.30;;;19.10;86.30;;;;;;6166212;23;20009;-81
2022/09/19 14:23:50;;;;;;;2.33;0.30;;;18.90;87.30;;;;;;6190272;23;20009;-81
2022/09/19 14:26:33;;;;;;;1.52;0.30;;;18.50;87.10;;;;;;6114814;23;20448;-82
2022/09/19 14:29:24;;;;;;;2.13;0.25;;;18.20;88.10;;;;;;6140779;23;20019;-81
2022/09/19 14:32:06;;;;;;;1.75;0.20;;;17.80;89.20;;;;;;6140994;23;19997;-82
2022/09/19 14:34:53;;;;;;;0.77;0.20;;;17.60;90.00;;;;;;6190393;23;20015;-82
2022/09/19 14:37:43;;;;;;;1.10;0.20;;;17.40;90.30;;;;;;6118028;23;20012;-82
2022/09/19 14:40:33;;;;;;;2.05;0.30;;;17.20;90.70;;;;;;6177019;23;20008;-82
2022/09/19 14:43:39;;;;;;;4.43;0.40;;;17.10;91.20;;;;;;6167114;23;20009;-81
2022/09/19 14:46:20;;;;;;;1.67;0.20;;;17.00;91.50;;;;;;6118487;23;20017;-82
2022/09/19 14:49:05;;;;;;;2.03;0.20;;;16.90;92.10;;;;;;6149367;23;20019;-81
2022/09/19 14:51:42;;;;;;;3.15;0.38;;;16.80;92.50;;;;;;6200784;23;20009;-80
2022/09/19 14:54:38;;;;;;;3.42;0.40;;;16.80;92.80;;;;;;6176884;23;20005;-83
2022/09/19 14:57:16;;;;;;;2.83;0.30;;;16.90;93.10;;;;;;6127848;23;20000;-81
2022/09/19 14:59:44;;;;;;;3.78;0.30;;;17.00;93.20;;;;;;6213672;23;20001;-80
2022/09/19 15:02:23;;;;;;;2.75;0.55;;;17.00;93.30;;;;;;6129473;23;20011;-81
2022/09/19 15:05:18;;;;;;;5.18;0.30;;;17.10;93.60;;;;;;6184938;23;20011;-81
2022/09/19 15:07:47;;;;;;;1.55;0.20;;;17.10;93.50;;;;;;6165132;23;20355;-82
2022/09/19 15:10:29;;;;;;;3.67;0.40;;;17.00;93.90;;;;;;6139380;23;20479;-81
2022/09/19 15:13:25;;;;;;;;;;;;;;;;;;;;;
2022/09/19 15:19:13;;;;;;;5.72;2.22;;;16.60;95.20;;;;;;6169920;23;20004;-81
2022/09/19 15:21:57;;;;;;;4.03;1.00;;;16.50;95.60;;;;;;6174404;23;20012;-80
2022/09/19 15:24:50;;;;;;;2.05;0.60;;;16.50;96.20;;;;;;6175074;23;20005;-81
2022/09/19 15:27:33;;;;;;;4.28;0.60;;;16.50;96.50;;;;;;6145006;23;20009;-80
2022/09/19 15:30:18;;;;;;;4.32;0.50;;;16.40;96.90;;;;;;6148193;23;20009;-81
2022/09/19 15:33:11;;;;;;;5.57;0.60;;;16.40;97.20;;;;;;6165695;23;20011;-80
2022/09/19 15:35:42;;;;;;;1.88;0.30;;;16.30;97.40;;;;;;6171179;23;20016;-80
2022/09/19 15:38:37;;;;;;;3.10;0.40;;;16.30;97.60;;;;;;6192894;23;20001;-81
2022/09/19 15:41:12;;;;;;;2.70;0.60;;;16.30;98.00;;;;;;6137583;23;20020;-81
2022/09/19 15:44:00;;;;;;;2.83;0.50;;;16.40;98.00;;;;;;6167960;23;20306;-81
2022/09/19 15:47:01;;;;;;;5.18;0.40;;;16.40;98.10;;;;;;6163717;23;20236;-80
2022/09/19 15:49:40;;;;;;;4.38;0.70;;;16.40;98.10;;;;;;6165741;23;20473;-81
2022/09/19 15:52:31;;;;;;;3.75;0.40;;;16.30;98.20;;;;;;6141173;23;20001;-80
2022/09/19 15:55:18;;;;;;;6.50;0.50;;;16.30;98.10;;;;;;6165162;23;20009;-80
2022/09/19 15:57:57;;;;;;;3.20;0.40;;;16.30;98.30;;;;;;6133690;23;20013;-82
2022/09/19 16:00:52;;;;;;;3.05;0.35;;;16.30;98.60;;;;;;6164251;23;20564;-82
2022/09/19 16:04:07;;;;;;;5.90;0.40;;;16.40;98.70;;;;;;6174826;23;20024;-85
2022/09/19 16:10:37;;;;;;;5.05;0.60;;;16.50;99.00;;;;;;6162340;23;20023;-83
2022/09/19 16:13:26;;;;;;;4.72;0.60;;;16.50;99.20;;;;;;6126791;23;20013;-79
2022/09/19 16:15:54;;;;;;;6.68;1.58;;;16.40;99.30;;;;;;6162832;23;20009;-81
2022/09/19 16:18:28;;;;;;;9.02;1.30;;;16.20;99.40;;;;;;6186661;23;20016;-83
2022/09/19 16:21:10;;;;;;;5.15;0.90;;;16.10;99.70;;;;;;6137137;23;20005;-81
2022/09/19 16:23:44;;;;;;;5.28;2.58;;;16.00;99.90;;;;;;6136858;23;20032;-81
2022/09/19 16:26:14;;;;;;;5.45;1.52;;;16.00;99.90;;;;;;6162282;23;20020;-80
2022/09/19 16:28:47;;;;;;;3.28;0.73;;;15.90;99.90;;;;;;6187212;23;20340;-81
2022/09/19 16:31:21;;;;;;;7.38;0.77;;;15.80;99.90;;;;;;6138677;23;20005;-83
2022/09/19 16:33:54;;;;;;;3.17;0.40;;;15.80;99.90;;;;;;6138616;23;20023;-80
2022/09/19 16:36:27;;;;;;;4.07;0.60;;;15.80;99.90;;;;;;6161948;23;20011;-83
2022/09/19 16:39:23;;;;;;;5.47;0.45;;;15.80;99.90;;;;;;6140698;23;20315;-81
2022/09/19 16:46:04;;;;;;;;;;;;;;;;;;;;;
2022/09/19 16:48:43;;;;;;;11.25;2.40;;;15.40;99.90;;;;;;6164842;23;20012;-81
2022/09/19 16:51:27;;;;;;;10.80;5.57;;;15.30;99.90;;;;;;6179666;23;20013;-82
2022/09/19 16:54:04;;;;;;;9.45;3.30;;;15.30;99.90;;;;;;6138866;23;20001;-81
2022/09/19 16:56:33;;;;;;;8.85;2.17;;;15.30;99.90;;;;;;6136819;23;19997;-81
2022/09/19 16:59:27;;;;;;;6.35;1.33;;;15.30;99.90;;;;;;6188590;23;20015;-80
2022/09/19 17:02:00;;;;;;;4.65;0.68;;;15.30;99.90;;;;;;6137689;23;20019;-82
2022/09/19 17:11:53;;;;;;;8.75;0.80;;;15.20;99.90;;;;;;6050917;23;20018;-81
2022/09/19 17:15:04;;;;;;;3.45;0.40;;;15.10;99.90;;;;;;6053608;23;20010;-80
2022/09/19 17:17:36;;;;;;;3.53;0.60;;;15.10;99.90;;;;;;6142805;23;20005;-82
2022/09/19 17:20:34;;;;;;;8.30;0.98;;;15.10;99.90;;;;;;6146023;23;20012;-82
2022/09/19 17:23:15;;;;;;;3.75;0.60;;;15.00;99.90;;;;;;6136035;23;20012;-82
2022/09/19 17:26:01;;;;;;;5.20;0.60;;;14.90;99.90;;;;;;6169928;23;20005;-81
2022/09/19 17:28:35;;;;;;;6.35;0.60;;;14.90;99.90;;;;;;6171123;23;20011;-81
2022/09/19 17:31:32;;;;;;;4.00;0.40;;;14.80;99.90;;;;;;6170123;23;20471;-81
2022/09/19 17:34:24;;;;;;;3.78;0.50;;;14.80;99.90;;;;;;6189359;23;20009;-80
2022/09/19 17:36:51;;;;;;;5.25;0.40;;;14.60;99.90;;;;;;6212219;23;20011;-81
2022/09/19 17:39:18;;;;;;;5.93;0.63;;;14.50;99.90;;;;;;6163997;23;20015;-80
2022/09/19 17:41:46;;;;;;;4.82;0.50;;;14.30;99.90;;;;;;6162934;23;20020;-79
2022/09/19 17:44:18;;;;;;;5.10;0.63;;;14.20;99.90;;;;;;6186233;23;20023;-81
2022/09/19 17:46:44;;;;;;;5.50;0.50;;;14.10;99.90;;;;;;6188725;23;20014;-78
2022/09/19 17:49:13;;;;;;;2.90;0.40;;;13.90;99.90;;;;;;6189563;23;20013;-81
2022/09/19 17:51:40;;;;;;;4.30;0.50;;;13.80;99.90;;;;;;6188486;23;20340;-79
2022/09/19 17:54:07;;;;;;;10.27;4.00;;;13.70;99.90;;;;;;6188113;23;20001;-79
2022/09/19 17:56:33;;;;;;;9.82;1.88;;;13.70;99.90;;;;;;6158941;23;20008;-79
2022/09/19 17:59:06;;;;;;;4.38;1.00;;;13.70;99.90;;;;;;6178688;23;20002;-78
2022/09/19 18:04:21;;;;;;;6.43;1.00;;;13.70;99.90;;;;;;6163100;23;20005;-80
2022/09/19 18:06:50;;;;;;;4.30;0.52;;;13.70;99.90;;;;;;6187299;23;20008;-79
2022/09/19 18:09:28;;;;;;;6.20;0.60;;;13.70;99.90;;;;;;6141937;23;20013;-80
2022/09/19 18:12:00;;;;;;;4.72;0.43;;;13.70;99.90;;;;;;6137928;23;20005;-80
2022/09/19 18:14:36;;;;;;;4.60;0.77;;;13.60;99.90;;;;;;6140390;23;20448;-78
2022/09/19 18:17:05;;;;;;;6.32;0.40;;;13.60;99.90;;;;;;6164969;23;20006;-78
2022/09/19 18:19:32;;;;;;;4.82;0.70;;;13.60;99.90;;;;;;6140582;23;20009;-80
2022/09/19 18:22:10;;;;;;;5.70;0.50;;;13.50;99.90;;;;;;6187128;23;20005;-77
2022/09/19 18:24:37;;;;;;;3.75;0.50;;;13.40;99.90;;;;;;6169400;23;20453;-79
2022/09/19 18:27:06;;;;;;;4.78;0.50;;;13.40;99.90;;;;;;6181761;23;20009;-78
2022/09/19 18:29:36;;;;;;;2.97;0.40;;;13.30;99.90;;;;;;6193520;23;20318;-79
2022/09/19 18:32:19;;;;;;;3.92;1.15;;;13.20;99.90;;;;;;6137989;23;20052;-81
2022/09/19 18:34:52;;;;;;;4.72;0.60;;;13.10;99.90;;;;;;6180640;23;20011;-81
2022/09/19 18:37:42;;;;;;;2.03;0.60;;;13.10;99.90;;;;;;6144491;23;20005;-82
2022/09/19 18:43:48;;;;;;;6.35;1.27;;;12.80;99.90;;;;;;6165685;23;20013;-81
2022/09/19 18:46:39;;;;;;;5.15;1.42;;;12.70;99.90;;;;;;6141215;23;20448;-81
2022/09/19 18:49:24;;;;;;;8.38;2.72;;;12.60;99.90;;;;;;6164055;23;20340;-80
2022/09/19 18:51:58;;;;;;;15.68;8.27;;;12.50;99.90;;;;;;6164045;23;20028;-81
2022/09/19 18:54:37;;;;;;;34.25;18.92;;;12.50;99.90;;;;;;6142832;23;20011;-81
2022/09/19 18:57:06;;;;;;;25.45;15.98;;;12.40;99.90;;;;;;6160238;23;20027;-80
2022/09/19 18:59:38;;;;;;;27.88;14.82;;;12.40;99.90;;;;;;6163465;23;20013;-80
2022/09/19 19:02:22;;;;;;;15.77;8.02;;;12.30;99.90;;;;;;6168599;23;20009;-81
2022/09/19 19:04:58;;;;;;;13.55;5.95;;;12.30;99.90;;;;;;6144391;23;20344;-81
2022/09/19 19:07:41;;;;;;;13.30;5.47;;;12.30;99.90;;;;;;6142091;23;20013;-80
2022/09/19 19:10:46;;;;;;;8.52;3.53;;;12.20;99.90;;;;;;6169972;23;20012;-83
2022/09/19 19:13:26;;;;;;;7.18;2.60;;;12.20;99.90;;;;;;6166206;23;20020;-82
2022/09/19 19:16:00;;;;;;;5.90;1.30;;;12.20;99.90;;;;;;6197323;23;20481;-80
2022/09/19 19:18:27;;;;;;;5.57;1.05;;;12.20;99.90;;;;;;6166188;23;20008;-82
2022/09/19 19:20:53;;;;;;;3.42;0.50;;;12.20;99.90;;;;;;6189271;23;20012;-80
2022/09/19 19:23:23;;;;;;;4.25;0.70;;;12.20;99.90;;;;;;6164601;23;20713;-80
2022/09/19 19:25:55;;;;;;;4.90;0.90;;;12.30;99.90;;;;;;6163342;23;20009;-80
2022/09/19 19:28:25;;;;;;;;;;;12.30;99.90;;;;;;6137322;23;20445;-81
